Time;durP1;ratioP1;P1;durP2;ratioP2;P2;SDS_P1;SDS_P2;PMS_P1;PMS_P2;Temp;Humidity;BMP_temperature;BMP_pressure;BME280_temperature;BME280_humidity;BME280_pressure;Samples;Min_cycle;Max_cycle;Signal;HPM_P1;HPM_P2
2021/09/09 00:00:18;;;;;;;14.20;12.70;;;21.50;71.60;;;;;;5011453;28;20037;-83
2021/09/09 00:02:44;;;;;;;15.73;13.77;;;21.50;71.70;;;;;;5027585;28;20088;-84
2021/09/09 00:05:13;;;;;;;17.52;15.30;;;21.50;71.70;;;;;;5027991;28;20041;-86
2021/09/09 00:07:40;;;;;;;15.63;14.02;;;21.50;71.70;;;;;;5026568;28;20062;-86
2021/09/09 00:10:08;;;;;;;16.95;14.38;;;21.50;71.70;;;;;;5046160;28;20481;-85
2021/09/09 00:12:36;;;;;;;15.95;14.30;;;21.50;71.80;;;;;;5046875;28;20071;-84
2021/09/09 00:15:03;;;;;;;16.60;14.82;;;21.50;71.80;;;;;;5047500;28;20460;-86
2021/09/09 00:17:29;;;;;;;17.10;14.20;;;21.40;71.70;;;;;;5048519;28;20453;-85
2021/09/09 00:19:56;;;;;;;19.60;15.20;;;21.50;71.90;;;;;;5029844;28;20556;-83
2021/09/09 00:22:23;;;;;;;15.30;13.90;;;21.50;71.90;;;;;;5026748;28;20414;-83
2021/09/09 00:24:49;;;;;;;17.02;15.25;;;21.50;71.90;;;;;;5045582;28;20040;-82
2021/09/09 00:27:16;;;;;;;17.25;15.27;;;21.40;71.70;;;;;;5048045;28;20213;-85
2021/09/09 00:29:42;;;;;;;16.25;14.40;;;21.40;71.80;;;;;;5047469;28;20068;-86
2021/09/09 00:32:09;;;;;;;15.55;14.10;;;21.40;71.80;;;;;;5046990;28;20055;-84
2021/09/09 00:34:35;;;;;;;15.98;14.48;;;21.40;71.90;;;;;;5045979;28;20456;-85
2021/09/09 00:37:01;;;;;;;17.58;15.38;;;21.40;71.90;;;;;;5046262;28;20057;-87
2021/09/09 00:39:27;;;;;;;17.13;15.30;;;21.40;71.90;;;;;;5046824;28;20037;-85
2021/09/09 00:41:53;;;;;;;16.60;14.85;;;21.40;72.00;;;;;;5047419;28;20494;-86
2021/09/09 00:44:22;;;;;;;17.70;15.90;;;21.40;72.00;;;;;;5031920;28;20045;-85
2021/09/09 00:47:07;;;;;;;17.38;15.57;;;21.30;71.90;;;;;;5047878;28;20124;-86
2021/09/09 00:49:34;;;;;;;15.35;13.75;;;21.30;72.00;;;;;;5032872;28;20481;-87
2021/09/09 00:52:01;;;;;;;16.52;14.93;;;21.30;72.00;;;;;;5026850;28;20547;-88
2021/09/09 00:54:27;;;;;;;16.42;14.90;;;21.30;72.00;;;;;;5025638;28;20032;-83
2021/09/09 00:56:53;;;;;;;16.83;15.18;;;21.30;72.00;;;;;;5031168;28;20052;-83
2021/09/09 00:59:20;;;;;;;17.35;14.75;;;21.30;72.00;;;;;;5035734;28;20511;-83
2021/09/09 01:01:46;;;;;;;16.85;15.18;;;21.30;72.10;;;;;;5026913;28;20079;-83
2021/09/09 01:04:14;;;;;;;17.33;15.55;;;21.30;72.10;;;;;;5041249;28;20497;-85
2021/09/09 01:06:40;;;;;;;18.00;16.00;;;21.30;72.20;;;;;;5047574;28;20127;-85
2021/09/09 01:09:06;;;;;;;18.08;16.10;;;21.30;72.20;;;;;;5047693;28;20040;-85
2021/09/09 01:11:32;;;;;;;18.42;16.50;;;21.20;72.10;;;;;;5030786;28;20028;-87
2021/09/09 01:14:11;;;;;;;17.13;15.38;;;21.20;72.10;;;;;;5037622;28;20033;-84
2021/09/09 01:16:38;;;;;;;18.95;16.30;;;21.20;72.20;;;;;;5027101;28;20493;-83
2021/09/09 01:19:05;;;;;;;15.98;14.40;;;21.20;72.20;;;;;;5045857;28;20029;-85
2021/09/09 01:21:32;;;;;;;18.05;16.20;;;21.20;72.30;;;;;;5047149;28;20033;-84
2021/09/09 01:24:00;;;;;;;18.15;15.95;;;21.20;72.30;;;;;;5037791;28;20033;-83
2021/09/09 01:26:29;;;;;;;18.67;16.52;;;21.20;72.30;;;;;;5029380;28;20064;-83
2021/09/09 01:28:58;;;;;;;17.23;15.50;;;21.20;72.40;;;;;;5037492;28;20032;-80
2021/09/09 01:31:25;;;;;;;17.95;16.08;;;21.10;72.30;;;;;;5030867;28;20025;-83
2021/09/09 01:33:55;;;;;;;17.58;15.77;;;21.10;72.30;;;;;;5049034;28;20040;-86
2021/09/09 01:36:22;;;;;;;18.10;16.30;;;21.10;72.40;;;;;;5049627;28;20569;-85
2021/09/09 01:38:48;;;;;;;17.95;16.25;;;21.10;72.40;;;;;;5042726;28;20029;-85
2021/09/09 01:41:14;;;;;;;18.23;16.23;;;21.00;72.30;;;;;;5028398;28;20294;-82
2021/09/09 01:43:40;;;;;;;18.08;15.20;;;21.00;72.30;;;;;;5011944;28;20037;-86
2021/09/09 01:46:06;;;;;;;16.92;15.18;;;20.90;72.20;;;;;;5022176;28;20469;-81
2021/09/09 01:48:32;;;;;;;17.38;15.57;;;21.00;72.50;;;;;;5045205;28;20056;-85
2021/09/09 01:50:59;;;;;;;18.58;16.33;;;20.90;72.30;;;;;;5049698;28;20029;-82
2021/09/09 01:53:25;;;;;;;16.58;14.85;;;20.90;72.40;;;;;;5049729;28;20538;-85
2021/09/09 01:55:51;;;;;;;18.23;16.25;;;20.90;72.50;;;;;;5033225;28;20489;-84
2021/09/09 01:58:17;;;;;;;18.20;16.48;;;20.90;72.60;;;;;;5051123;28;20351;-83
2021/09/09 02:00:43;;;;;;;18.80;16.83;;;20.80;72.50;;;;;;5050673;28;20028;-84
2021/09/09 02:03:08;;;;;;;21.42;15.88;;;20.80;72.50;;;;;;5032764;28;20041;-84
2021/09/09 02:05:34;;;;;;;20.35;16.20;;;20.80;72.60;;;;;;5049190;28;20037;-83
2021/09/09 02:08:00;;;;;;;20.45;17.00;;;20.80;72.60;;;;;;5050965;28;20028;-88
2021/09/09 02:10:26;;;;;;;19.67;16.23;;;20.80;72.70;;;;;;5051253;28;20090;-84
2021/09/09 02:12:52;;;;;;;18.25;16.27;;;20.70;72.60;;;;;;5049888;28;20459;-85
2021/09/09 02:15:18;;;;;;;19.77;17.15;;;20.70;72.60;;;;;;5051809;28;20453;-85
2021/09/09 02:17:45;;;;;;;17.02;15.25;;;20.70;72.70;;;;;;5050152;28;20032;-87
2021/09/09 02:20:11;;;;;;;17.98;16.17;;;20.70;72.70;;;;;;5049394;28;20021;-86
2021/09/09 02:22:37;;;;;;;18.27;16.45;;;20.70;72.80;;;;;;5049408;28;20067;-85
2021/09/09 02:25:03;;;;;;;17.90;16.20;;;20.70;72.80;;;;;;5050434;28;20049;-84
2021/09/09 02:27:30;;;;;;;18.58;16.67;;;20.60;72.70;;;;;;5049323;28;20118;-83
2021/09/09 02:29:56;;;;;;;18.98;16.40;;;20.60;72.80;;;;;;5050471;28;20033;-86
2021/09/09 02:32:22;;;;;;;18.00;16.38;;;20.60;72.80;;;;;;5051832;28;20055;-87
2021/09/09 02:34:48;;;;;;;18.40;16.67;;;20.60;72.90;;;;;;5050810;28;20029;-87
2021/09/09 02:37:14;;;;;;;17.75;16.00;;;20.60;72.90;;;;;;5050940;28;20033;-86
2021/09/09 02:39:42;;;;;;;18.95;17.05;;;20.50;72.80;;;;;;5049849;28;20036;-86
2021/09/09 02:42:10;;;;;;;19.73;17.73;;;20.50;72.90;;;;;;5051190;28;20041;-85
2021/09/09 02:44:36;;;;;;;19.45;17.55;;;20.40;72.80;;;;;;5033317;28;20492;-86
2021/09/09 02:47:02;;;;;;;19.75;17.42;;;20.40;72.80;;;;;;5050524;28;20045;-87
2021/09/09 02:49:28;;;;;;;16.67;15.18;;;20.40;72.90;;;;;;5051008;28;20116;-85
2021/09/09 02:51:54;;;;;;;18.80;16.92;;;20.40;72.90;;;;;;5050766;28;20128;-88
2021/09/09 02:54:20;;;;;;;19.20;17.17;;;20.30;72.80;;;;;;5051282;28;20428;-84
2021/09/09 02:56:46;;;;;;;18.08;16.38;;;20.30;72.90;;;;;;5051207;28;20029;-87
2021/09/09 02:59:13;;;;;;;19.42;16.90;;;20.30;73.00;;;;;;5052033;28;20066;-85
2021/09/09 03:01:39;;;;;;;18.70;16.73;;;20.20;72.80;;;;;;5050480;28;20025;-87
2021/09/09 03:04:05;;;;;;;18.30;16.50;;;20.20;72.90;;;;;;5050756;28;20048;-83
2021/09/09 03:06:31;;;;;;;20.02;17.17;;;20.20;73.00;;;;;;5048333;28;20029;-86
2021/09/09 03:08:57;;;;;;;18.25;16.50;;;20.10;72.90;;;;;;5050394;28;20365;-84
2021/09/09 03:11:25;;;;;;;19.13;17.27;;;20.10;73.00;;;;;;5051571;28;20029;-85
2021/09/09 03:13:51;;;;;;;19.00;17.05;;;20.10;73.00;;;;;;5054856;28;20040;-86
2021/09/09 03:16:17;;;;;;;18.67;16.92;;;20.10;73.10;;;;;;5054570;28;20052;-83
2021/09/09 03:18:43;;;;;;;18.52;16.30;;;20.00;73.00;;;;;;5054583;28;20095;-83
2021/09/09 03:21:09;;;;;;;18.50;16.60;;;20.00;73.00;;;;;;5052633;28;20531;-84
2021/09/09 03:23:35;;;;;;;19.48;17.40;;;19.90;72.90;;;;;;5052105;28;20068;-84
2021/09/09 03:26:01;;;;;;;22.25;17.23;;;19.90;73.00;;;;;;5053789;28;20040;-83
2021/09/09 03:28:27;;;;;;;18.55;16.23;;;19.90;73.10;;;;;;5052771;28;20039;-83
2021/09/09 03:30:53;;;;;;;17.83;16.08;;;19.80;73.00;;;;;;5036484;28;20087;-82
2021/09/09 03:33:18;;;;;;;19.42;17.42;;;19.80;73.00;;;;;;5054517;28;20499;-83
2021/09/09 03:35:45;;;;;;;18.35;15.98;;;19.80;73.10;;;;;;5055408;28;20056;-84
2021/09/09 03:38:11;;;;;;;18.58;16.60;;;19.80;73.20;;;;;;5036758;28;20064;-86
2021/09/09 03:40:37;;;;;;;19.67;17.15;;;19.80;73.30;;;;;;5053305;28;20039;-86
2021/09/09 03:43:03;;;;;;;18.95;16.65;;;19.80;73.30;;;;;;5054212;28;20044;-84
2021/09/09 03:45:30;;;;;;;19.55;17.70;;;19.70;73.20;;;;;;5054317;28;20143;-85
2021/09/09 03:47:56;;;;;;;18.63;16.73;;;19.70;73.20;;;;;;5054738;28;20045;-86
2021/09/09 03:50:22;;;;;;;18.25;16.55;;;19.70;73.30;;;;;;5053552;28;20032;-84
2021/09/09 03:52:49;;;;;;;19.80;17.80;;;19.70;73.30;;;;;;5056771;28;20250;-83
2021/09/09 03:55:15;;;;;;;17.55;15.80;;;19.70;73.40;;;;;;5055558;28;20125;-87
2021/09/09 03:57:41;;;;;;;19.90;17.75;;;19.70;73.40;;;;;;5057011;28;20447;-85
2021/09/09 04:00:08;;;;;;;18.58;16.30;;;19.60;73.20;;;;;;5058751;28;20108;-86
2021/09/09 04:02:34;;;;;;;17.73;16.13;;;19.60;73.30;;;;;;5059612;28;20350;-84
2021/09/09 04:05:02;;;;;;;20.15;16.60;;;19.60;73.30;;;;;;5059113;28;20094;-81
2021/09/09 04:07:28;;;;;;;17.40;15.60;;;19.60;73.40;;;;;;5053388;28;20041;-84
2021/09/09 04:09:54;;;;;;;18.98;17.17;;;19.60;73.40;;;;;;5075359;28;20021;-86
2021/09/09 04:12:20;;;;;;;17.83;16.08;;;19.60;73.50;;;;;;5058414;28;20035;-84
2021/09/09 04:14:45;;;;;;;21.48;16.88;;;19.60;73.50;;;;;;5042316;28;20044;-82
2021/09/09 04:17:12;;;;;;;19.90;17.90;;;19.50;73.40;;;;;;5076424;28;20033;-82
2021/09/09 04:19:37;;;;;;;20.25;18.15;;;19.60;73.60;;;;;;5076267;28;20237;-82
2021/09/09 04:22:07;;;;;;;20.95;18.80;;;19.60;73.60;;;;;;5075840;28;20096;-86
2021/09/09 04:24:35;;;;;;;18.77;16.98;;;19.50;73.40;;;;;;5058567;28;20029;-86
2021/09/09 04:27:01;;;;;;;20.00;17.80;;;19.50;73.50;;;;;;5076314;28;20017;-86
2021/09/09 04:29:27;;;;;;;19.25;17.35;;;19.50;73.50;;;;;;5058550;28;20039;-84
2021/09/09 04:31:53;;;;;;;19.98;17.77;;;19.50;73.50;;;;;;5082378;28;20052;-82
2021/09/09 04:34:19;;;;;;;19.02;16.98;;;19.50;73.50;;;;;;5096167;28;20116;-84
2021/09/09 04:36:45;;;;;;;20.70;18.60;;;19.50;73.60;;;;;;5094890;28;20044;-86
2021/09/09 04:39:11;;;;;;;20.55;18.55;;;19.50;73.60;;;;;;5096013;28;20078;-85
2021/09/09 04:41:37;;;;;;;20.38;18.38;;;19.50;73.60;;;;;;5094800;28;20031;-84
2021/09/09 04:44:04;;;;;;;21.15;18.92;;;19.50;73.70;;;;;;5078276;28;20044;-84
2021/09/09 04:46:32;;;;;;;21.08;18.77;;;19.50;73.70;;;;;;5077562;28;20075;-84
2021/09/09 04:48:58;;;;;;;20.85;18.63;;;19.50;73.70;;;;;;5071828;28;20021;-79
2021/09/09 04:51:25;;;;;;;19.85;17.95;;;19.50;73.80;;;;;;5072065;28;20017;-80
2021/09/09 04:53:51;;;;;;;21.17;19.23;;;19.50;73.80;;;;;;5071983;28;20037;-82
2021/09/09 04:56:17;;;;;;;21.70;19.48;;;19.50;73.80;;;;;;5072787;28;20025;-80
2021/09/09 04:58:43;;;;;;;21.60;19.35;;;19.50;73.80;;;;;;5060379;28;20622;-84
2021/09/09 05:01:09;;;;;;;18.85;17.02;;;19.50;73.90;;;;;;5052878;28;20041;-84
2021/09/09 05:03:35;;;;;;;21.10;19.10;;;19.40;73.70;;;;;;5025468;28;20116;-81
2021/09/09 05:06:01;;;;;;;22.35;18.77;;;19.40;73.80;;;;;;5050737;28;20105;-84
2021/09/09 05:08:27;;;;;;;20.90;18.73;;;19.40;73.80;;;;;;5050380;28;20022;-81
2021/09/09 05:10:53;;;;;;;21.38;19.27;;;19.40;73.80;;;;;;5050479;28;20161;-85
2021/09/09 05:13:20;;;;;;;22.00;19.65;;;19.40;73.80;;;;;;5051250;28;20090;-84
2021/09/09 05:15:46;;;;;;;20.35;18.35;;;19.40;73.90;;;;;;5048720;28;20154;-80
2021/09/09 05:18:12;;;;;;;20.85;18.63;;;19.40;73.90;;;;;;5035854;28;20030;-87
2021/09/09 05:20:37;;;;;;;21.50;19.38;;;19.40;74.00;;;;;;5026931;28;20053;-86
2021/09/09 05:23:03;;;;;;;22.20;19.13;;;19.40;74.00;;;;;;5026426;28;20073;-83
2021/09/09 05:25:29;;;;;;;21.23;19.33;;;19.40;74.00;;;;;;5026434;28;20057;-84
2021/09/09 05:27:55;;;;;;;20.42;18.50;;;19.40;74.10;;;;;;5026681;28;20030;-85
2021/09/09 05:30:21;;;;;;;21.25;19.00;;;19.40;74.10;;;;;;5026050;28;20034;-80
2021/09/09 05:32:48;;;;;;;22.80;20.38;;;19.40;74.10;;;;;;5028356;28;20277;-82
2021/09/09 05:35:14;;;;;;;21.38;19.13;;;19.40;74.30;;;;;;5027468;28;20033;-82
2021/09/09 05:37:40;;;;;;;22.38;19.13;;;19.40;74.50;;;;;;5044584;28;20025;-83
2021/09/09 05:40:08;;;;;;;22.65;20.48;;;19.40;74.70;;;;;;5015379;28;20036;-82
2021/09/09 05:42:34;;;;;;;21.80;19.83;;;19.40;74.80;;;;;;5017578;28;20048;-82
2021/09/09 05:45:00;;;;;;;24.10;20.50;;;19.40;74.90;;;;;;5027420;28;20049;-82
2021/09/09 05:47:26;;;;;;;23.48;20.77;;;19.40;75.10;;;;;;5016067;28;20995;-83
2021/09/09 05:49:52;;;;;;;23.15;20.88;;;19.40;75.20;;;;;;5049800;28;20025;-82
2021/09/09 05:52:18;;;;;;;21.42;19.20;;;19.40;75.40;;;;;;5045497;28;20037;-85
2021/09/09 05:54:44;;;;;;;21.65;19.40;;;19.40;75.50;;;;;;5046733;28;20269;-82
2021/09/09 05:57:10;;;;;;;21.98;19.10;;;19.40;75.60;;;;;;5046642;28;20136;-83
2021/09/09 05:59:36;;;;;;;22.15;19.77;;;19.40;75.70;;;;;;5024655;28;20040;-82
2021/09/09 06:02:03;;;;;;;21.23;19.27;;;19.40;76.00;;;;;;5041384;28;20518;-81
2021/09/09 06:04:34;;;;;;;22.23;19.80;;;19.40;76.30;;;;;;5026227;28;20041;-82
2021/09/09 06:07:01;;;;;;;19.98;17.90;;;19.40;76.40;;;;;;5025031;28;20116;-83
2021/09/09 06:09:26;;;;;;;19.80;17.70;;;19.40;76.50;;;;;;5025049;28;20457;-85
2021/09/09 06:11:52;;;;;;;20.83;18.85;;;19.40;76.70;;;;;;5026096;28;20061;-84
2021/09/09 06:14:18;;;;;;;21.92;19.85;;;19.40;76.80;;;;;;5026693;28;20040;-83
2021/09/09 06:16:44;;;;;;;21.08;18.80;;;19.40;77.00;;;;;;5027183;28;20041;-82
2021/09/09 06:19:10;;;;;;;21.50;19.35;;;19.40;77.30;;;;;;5024008;28;20369;-83
2021/09/09 06:21:36;;;;;;;22.88;18.38;;;19.40;77.40;;;;;;5042911;28;20045;-82
2021/09/09 06:24:06;;;;;;;19.90;17.80;;;19.40;77.50;;;;;;5043169;28;20041;-85
2021/09/09 06:26:33;;;;;;;21.10;18.83;;;19.40;77.50;;;;;;5028079;28;20029;-87
2021/09/09 06:28:59;;;;;;;19.33;17.52;;;19.40;77.60;;;;;;5014363;28;20108;-86
2021/09/09 06:31:28;;;;;;;19.63;17.65;;;19.50;77.80;;;;;;5010201;28;20117;-89
2021/09/09 06:33:54;;;;;;;19.45;17.30;;;19.50;77.70;;;;;;5021420;28;20043;-86
2021/09/09 06:36:20;;;;;;;19.33;17.45;;;19.60;77.80;;;;;;5025662;28;20041;-87
2021/09/09 06:38:46;;;;;;;18.20;16.50;;;19.60;77.80;;;;;;5037371;28;20706;-87
2021/09/09 06:41:12;;;;;;;19.48;17.33;;;19.60;77.60;;;;;;5044971;28;20033;-87
2021/09/09 06:43:38;;;;;;;17.75;16.08;;;19.70;77.80;;;;;;5045442;28;20479;-87
2021/09/09 06:46:04;;;;;;;19.38;17.52;;;19.70;77.70;;;;;;5030045;28;20041;-87
2021/09/09 06:48:31;;;;;;;18.52;16.65;;;19.70;77.60;;;;;;5049223;28;20108;-87
2021/09/09 06:51:00;;;;;;;19.45;17.45;;;19.70;77.60;;;;;;5049056;28;20136;-83
2021/09/09 06:53:27;;;;;;;19.35;17.40;;;19.70;77.60;;;;;;5038850;28;20473;-87
2021/09/09 06:55:52;;;;;;;17.67;16.08;;;19.70;77.50;;;;;;5011819;28;20057;-84
2021/09/09 06:58:18;;;;;;;19.45;17.40;;;19.80;77.60;;;;;;5036327;28;20056;-85
2021/09/09 07:00:44;;;;;;;18.77;16.75;;;19.80;77.60;;;;;;5032184;28;20060;-85
2021/09/09 07:03:10;;;;;;;18.70;17.00;;;19.80;77.60;;;;;;5048938;28;20082;-89
2021/09/09 07:05:36;;;;;;;17.95;16.15;;;19.80;77.50;;;;;;5044400;28;20021;-83
2021/09/09 07:08:03;;;;;;;17.48;15.88;;;19.90;77.60;;;;;;5011753;28;20036;-89
2021/09/09 07:10:29;;;;;;;17.83;16.08;;;19.90;77.60;;;;;;5028729;28;20034;-86
2021/09/09 07:12:55;;;;;;;17.15;15.45;;;19.90;77.50;;;;;;5028954;28;20048;-86
2021/09/09 07:15:21;;;;;;;18.58;16.05;;;19.90;77.50;;;;;;5028682;28;20062;-88
2021/09/09 07:17:47;;;;;;;16.70;15.07;;;19.90;77.50;;;;;;5017091;28;20481;-86
2021/09/09 07:20:13;;;;;;;19.83;17.10;;;19.90;77.50;;;;;;5029009;28;20033;-87
2021/09/09 07:22:39;;;;;;;17.30;15.35;;;19.90;77.50;;;;;;5046187;28;20124;-87
2021/09/09 07:25:06;;;;;;;17.42;15.73;;;19.90;77.50;;;;;;5028415;28;20116;-88
2021/09/09 07:27:32;;;;;;;17.65;15.77;;;19.90;77.40;;;;;;5031286;28;20022;-88
2021/09/09 07:29:58;;;;;;;16.25;14.75;;;20.00;77.60;;;;;;5049746;28;20510;-84
2021/09/09 07:32:24;;;;;;;15.88;14.40;;;19.90;77.30;;;;;;5048227;28;20021;-86
2021/09/09 07:34:51;;;;;;;16.40;14.77;;;20.00;77.50;;;;;;5047426;28;20036;-86
2021/09/09 07:37:17;;;;;;;16.55;14.82;;;20.00;77.50;;;;;;5050164;28;20036;-89
2021/09/09 07:39:43;;;;;;;16.50;14.95;;;20.00;77.40;;;;;;5053654;28;20483;-85
2021/09/09 07:42:09;;;;;;;16.42;14.82;;;20.10;77.50;;;;;;5051263;28;20044;-88
2021/09/09 07:44:35;;;;;;;16.85;15.15;;;20.10;77.50;;;;;;5048293;28;20033;-87
2021/09/09 07:47:02;;;;;;;15.90;14.30;;;20.10;77.40;;;;;;5046936;28;20151;-88
2021/09/09 07:49:28;;;;;;;15.77;14.27;;;20.10;77.40;;;;;;5045015;28;20033;-86
2021/09/09 07:51:54;;;;;;;14.57;13.27;;;20.20;77.50;;;;;;5047381;28;20037;-84
2021/09/09 07:54:21;;;;;;;16.27;14.77;;;20.20;77.40;;;;;;5046412;28;20033;-86
2021/09/09 07:56:50;;;;;;;15.45;13.98;;;20.30;77.50;;;;;;5046498;28;20086;-89
2021/09/09 07:59:16;;;;;;;15.65;14.18;;;20.30;77.40;;;;;;5031429;28;20050;-83
2021/09/09 08:01:46;;;;;;;14.50;13.23;;;20.40;77.50;;;;;;5026617;28;20033;-85
2021/09/09 08:04:16;;;;;;;15.35;13.95;;;20.40;77.50;;;;;;5016204;28;20102;-86
2021/09/09 08:06:43;;;;;;;13.93;12.60;;;20.40;77.40;;;;;;5030171;28;20074;-85
2021/09/09 08:09:11;;;;;;;14.23;12.82;;;20.40;77.30;;;;;;5046278;28;20025;-84
2021/09/09 08:11:37;;;;;;;13.45;12.15;;;20.40;77.40;;;;;;5046886;28;20515;-84
2021/09/09 08:14:04;;;;;;;14.32;11.90;;;20.40;77.40;;;;;;5048203;28;20464;-88
2021/09/09 08:16:30;;;;;;;13.30;12.05;;;20.40;77.40;;;;;;5047939;28;20021;-86
2021/09/09 08:18:56;;;;;;;13.07;11.77;;;20.40;77.40;;;;;;5046485;28;20037;-87
2021/09/09 08:21:22;;;;;;;13.50;12.23;;;20.40;77.40;;;;;;5048237;28;20362;-86
2021/09/09 08:23:48;;;;;;;12.07;11.02;;;20.40;77.40;;;;;;5046437;28;20106;-85
2021/09/09 08:26:14;;;;;;;12.93;11.63;;;20.30;77.20;;;;;;5013111;28;20029;-86
2021/09/09 08:28:40;;;;;;;13.05;11.75;;;20.40;77.40;;;;;;5026388;28;20033;-86
2021/09/09 08:31:06;;;;;;;13.13;11.68;;;20.40;77.40;;;;;;5043232;28;20388;-86
2021/09/09 08:33:32;;;;;;;11.65;10.55;;;20.40;77.40;;;;;;5021358;28;20068;-86
2021/09/09 08:36:06;;;;;;;13.00;11.70;;;20.40;77.40;;;;;;5022050;28;20448;-87
2021/09/09 08:38:32;;;;;;;12.93;11.65;;;20.40;77.40;;;;;;5036018;28;20074;-87
2021/09/09 08:41:01;;;;;;;13.00;11.80;;;20.50;77.50;;;;;;5030205;28;20029;-87
2021/09/09 08:43:28;;;;;;;12.15;11.15;;;20.50;77.50;;;;;;5035926;28;20055;-86
2021/09/09 08:45:54;;;;;;;11.98;10.77;;;20.50;77.40;;;;;;5026572;28;20580;-86
2021/09/09 08:48:22;;;;;;;12.13;10.93;;;20.50;77.30;;;;;;5039953;28;20057;-89
2021/09/09 08:50:48;;;;;;;12.93;11.68;;;20.60;77.40;;;;;;5046605;28;20518;-85
2021/09/09 08:53:14;;;;;;;12.48;11.18;;;20.60;77.40;;;;;;5037451;28;20036;-84
2021/09/09 08:55:43;;;;;;;11.38;10.25;;;20.60;77.40;;;;;;5026914;28;20033;-86
2021/09/09 08:58:09;;;;;;;11.98;10.13;;;20.50;77.30;;;;;;5025859;28;20052;-86
2021/09/09 09:00:36;;;;;;;11.75;10.57;;;20.50;77.30;;;;;;5026844;28;20037;-86
2021/09/09 09:03:02;;;;;;;11.55;10.48;;;20.60;77.60;;;;;;5025932;28;20080;-86
2021/09/09 09:05:28;;;;;;;11.73;10.48;;;20.60;77.60;;;;;;5026591;28;20362;-85
2021/09/09 09:08:03;;;;;;;11.00;9.68;;;20.60;77.70;;;;;;5026402;28;20473;-86
2021/09/09 09:10:31;;;;;;;9.95;8.95;;;20.60;77.80;;;;;;5026172;28;20147;-85
2021/09/09 09:12:58;;;;;;;10.30;8.88;;;20.70;77.90;;;;;;5011722;28;20029;-87
2021/09/09 09:15:33;;;;;;;9.30;8.40;;;20.70;77.80;;;;;;5042739;28;20385;-85
2021/09/09 09:18:06;;;;;;;9.77;8.88;;;20.70;77.80;;;;;;5045948;28;20029;-86
2021/09/09 09:20:48;;;;;;;8.98;8.05;;;20.70;77.70;;;;;;5045744;28;20130;-92
2021/09/09 09:23:16;;;;;;;9.00;8.10;;;20.70;77.70;;;;;;5045288;28;20036;-91
2021/09/09 09:25:48;;;;;;;9.60;8.00;;;20.70;77.70;;;;;;5045977;28;20041;-89
2021/09/09 09:28:16;;;;;;;8.85;8.02;;;20.70;77.70;;;;;;5045677;28;20187;-86
2021/09/09 09:31:12;;;;;;;8.48;7.75;;;20.70;77.70;;;;;;5039679;28;20021;-88
2021/09/09 09:33:41;;;;;;;8.60;7.75;;;20.70;77.90;;;;;;5033830;28;20120;-84
2021/09/09 09:36:32;;;;;;;7.75;6.97;;;20.70;77.80;;;;;;5042220;28;20037;-88
2021/09/09 09:39:14;;;;;;;8.55;7.07;;;20.70;77.80;;;;;;5035043;28;20087;-88
2021/09/09 09:42:01;;;;;;;8.55;7.72;;;20.80;77.80;;;;;;5028072;28;20132;-87
2021/09/09 09:44:45;;;;;;;7.80;6.72;;;20.90;77.80;;;;;;5044460;28;20139;-88
2021/09/09 09:47:13;;;;;;;;;;;21.10;77.90;;;;;;5013437;28;20087;-90
2021/09/09 09:49:44;;;;;;;7.32;6.30;;;21.30;77.80;;;;;;5062572;28;19913;-88
2021/09/09 09:52:19;;;;;;;6.55;5.72;;;21.40;77.60;;;;;;5045205;28;20111;-89
2021/09/09 09:54:57;;;;;;;5.95;5.45;;;21.60;77.70;;;;;;5024986;28;20552;-84
2021/09/09 09:57:24;;;;;;;6.72;6.00;;;21.70;77.50;;;;;;5024827;28;20036;-87
2021/09/09 09:59:51;;;;;;;6.35;5.75;;;21.90;77.60;;;;;;5008480;28;20057;-88
2021/09/09 10:02:17;;;;;;;7.05;6.45;;;22.00;77.50;;;;;;5042922;28;20076;-87
2021/09/09 10:04:46;;;;;;;5.97;5.47;;;22.10;77.50;;;;;;5047618;28;20621;-91
2021/09/09 10:07:14;;;;;;;6.13;5.53;;;22.10;77.40;;;;;;5047948;28;20048;-92
2021/09/09 10:09:42;;;;;;;7.50;5.65;;;22.20;77.50;;;;;;5027817;28;20479;-93
2021/09/09 10:12:10;;;;;;;5.68;5.18;;;22.20;77.40;;;;;;5010132;28;20163;-92
2021/09/09 10:14:49;;;;;;;5.38;4.90;;;22.20;77.30;;;;;;5026704;28;20357;-88
2021/09/09 10:17:22;;;;;;;5.63;5.13;;;22.20;77.30;;;;;;5011421;28;20039;-87
2021/09/09 10:19:49;;;;;;;5.30;4.80;;;22.20;77.30;;;;;;5040183;28;20388;-87
2021/09/09 10:22:17;;;;;;;6.28;4.55;;;22.20;77.20;;;;;;5024500;28;20330;-86
2021/09/09 10:25:02;;;;;;;5.15;4.65;;;22.30;77.40;;;;;;5044071;28;20040;-89
2021/09/09 10:27:42;;;;;;;5.05;4.55;;;22.40;77.50;;;;;;5044965;28;20087;-84
2021/09/09 10:30:26;;;;;;;7.07;4.40;;;22.40;77.30;;;;;;5044555;28;20025;-89
2021/09/09 10:32:55;;;;;;;5.60;5.00;;;22.50;77.50;;;;;;5047701;28;20733;-87
2021/09/09 10:35:30;;;;;;;4.85;4.35;;;22.70;77.90;;;;;;5037028;28;20460;-85
2021/09/09 10:38:19;;;;;;;5.32;4.68;;;22.80;78.00;;;;;;5049879;28;20480;-86
2021/09/09 10:40:46;;;;;;;4.55;4.15;;;22.90;78.10;;;;;;5037635;28;20040;-84
2021/09/09 10:43:14;;;;;;;4.63;3.65;;;22.90;78.10;;;;;;5046084;28;20127;-88
2021/09/09 10:45:45;;;;;;;7.65;4.18;;;23.00;78.30;;;;;;5050708;28;20568;-83
2021/09/09 10:48:14;;;;;;;6.55;3.90;;;23.00;78.40;;;;;;5043503;28;20103;-84
2021/09/09 10:50:59;;;;;;;3.83;3.22;;;23.00;78.50;;;;;;5029545;28;20032;-84
2021/09/09 10:53:36;;;;;;;5.68;3.72;;;23.10;78.70;;;;;;5030194;28;20034;-84
2021/09/09 10:56:10;;;;;;;8.00;3.80;;;23.10;79.00;;;;;;5026971;28;20026;-88
2021/09/09 10:58:38;;;;;;;8.07;3.65;;;23.30;79.40;;;;;;5042829;28;20033;-88
2021/09/09 11:01:07;;;;;;;6.80;3.72;;;23.40;79.50;;;;;;5033748;28;20061;-87
2021/09/09 11:03:47;;;;;;;14.95;4.30;;;23.50;79.70;;;;;;5025663;28;20507;-87
2021/09/09 11:06:19;;;;;;;25.05;7.78;;;23.80;80.40;;;;;;5032218;28;20036;-88
2021/09/09 11:08:47;;;;;;;19.73;8.13;;;23.90;80.50;;;;;;5036735;28;20453;-85
2021/09/09 11:11:18;;;;;;;18.25;6.65;;;24.00;80.70;;;;;;5045723;28;20102;-84
2021/09/09 11:13:44;;;;;;;16.40;5.30;;;24.10;81.00;;;;;;5051515;28;20112;-86
2021/09/09 11:16:19;;;;;;;9.30;4.90;;;24.10;80.90;;;;;;5026877;28;20110;-84
2021/09/09 11:18:45;;;;;;;7.90;4.25;;;24.20;81.00;;;;;;5034596;28;20030;-87
2021/09/09 11:21:15;;;;;;;12.27;4.35;;;24.20;80.80;;;;;;5008502;28;20405;-90
2021/09/09 11:23:41;;;;;;;13.13;4.25;;;24.20;80.70;;;;;;5010201;28;20037;-84
2021/09/09 11:26:17;;;;;;;13.80;4.80;;;24.40;80.90;;;;;;5014573;28;20026;-84
2021/09/09 11:28:43;;;;;;;14.10;3.97;;;24.50;80.90;;;;;;5033396;28;20626;-85
2021/09/09 11:31:15;;;;;;;8.68;3.22;;;24.60;80.70;;;;;;5043186;28;20086;-83
2021/09/09 11:33:49;;;;;;;7.43;3.53;;;24.70;80.60;;;;;;5034325;28;20485;-84
2021/09/09 11:36:15;;;;;;;;;;;24.70;80.20;;;;;;5028120;28;20034;-85
2021/09/09 11:38:41;;;;;;;9.07;3.35;;;24.80;80.20;;;;;;5038298;28;19931;-86
2021/09/09 11:41:18;;;;;;;6.15;2.55;;;24.80;80.00;;;;;;5030734;28;20124;-85
2021/09/09 11:43:55;;;;;;;5.13;2.60;;;24.80;79.60;;;;;;5047160;28;20037;-86
2021/09/09 11:46:35;;;;;;;8.13;2.92;;;24.80;79.50;;;;;;5046852;28;20145;-85
2021/09/09 11:49:03;;;;;;;4.40;2.80;;;24.80;79.40;;;;;;5046757;28;20049;-86
2021/09/09 11:51:29;;;;;;;6.70;2.92;;;24.80;79.30;;;;;;5047405;28;20119;-86
2021/09/09 11:53:55;;;;;;;4.88;3.63;;;24.80;79.30;;;;;;5030343;28;20132;-87
2021/09/09 11:56:22;;;;;;;6.15;3.15;;;24.80;79.40;;;;;;5046629;28;20040;-85
2021/09/09 11:58:48;;;;;;;4.70;3.60;;;24.90;79.40;;;;;;5046499;28;20029;-85
2021/09/09 12:01:15;;;;;;;3.58;3.25;;;25.00;79.30;;;;;;5046331;28;20033;-85
2021/09/09 12:03:44;;;;;;;8.07;2.78;;;25.10;79.10;;;;;;5029453;28;20559;-84
2021/09/09 12:06:15;;;;;;;4.35;3.10;;;25.20;78.90;;;;;;5030103;28;20044;-85
2021/09/09 12:08:45;;;;;;;4.97;2.72;;;25.30;78.60;;;;;;5036004;28;20748;-85
2021/09/09 12:11:12;;;;;;;4.95;2.67;;;25.40;78.80;;;;;;5026366;28;20116;-86
2021/09/09 12:13:40;;;;;;;5.20;3.03;;;25.50;78.00;;;;;;5021768;28;20074;-86
2021/09/09 12:16:33;;;;;;;6.20;3.22;;;25.70;77.70;;;;;;5048132;28;20517;-84
2021/09/09 12:19:06;;;;;;;4.13;3.13;;;25.80;77.20;;;;;;5029465;28;20032;-86
2021/09/09 12:21:33;;;;;;;;;;;25.90;76.90;;;;;;5047167;28;20063;-87
2021/09/09 12:24:06;;;;;;;5.10;4.60;;;26.00;76.90;;;;;;5032537;28;20349;-85
2021/09/09 12:26:34;;;;;;;4.78;4.15;;;26.10;76.40;;;;;;5009804;28;20342;-86
2021/09/09 12:29:11;;;;;;;3.40;2.85;;;26.20;75.90;;;;;;5038532;28;20482;-85
2021/09/09 12:31:37;;;;;;;3.53;2.80;;;26.30;75.60;;;;;;5029351;28;20040;-86
2021/09/09 12:34:18;;;;;;;4.32;3.90;;;26.20;75.30;;;;;;5016501;28;20025;-85
2021/09/09 12:36:51;;;;;;;6.32;3.33;;;26.20;75.20;;;;;;5038074;28;20037;-85